Terminal Aerodrome Forecast
Issued by NWS

Home | Current Version | Previous Version | Text Only | Print | Product List | Glossary On
Versions: 1 2 3 4 5 6 7 8 9 10 11 12 13 14 15 16 17 18 19 20 21 22 23 24 25 26 27 28 29 30 31 32 33 34 35 36 37 38 39
000
FTUS43 KDMX 282336
TAFOTM
TAF
KOTM 282336Z 2900/2924 15012KT P6SM VCTS SCT045CB BKN080
      TEMPO 2900/2902 4SM TSRA BR SCT035CB BKN060
     FM290400 15008KT P6SM VCSH SCT030 BKN060
     FM291000 17004KT 6SM BR SCT025 OVC100
     FM291400 19010KT P6SM SCT030 BKN060
     FM292000 19008KT P6SM VCSH SCT030 BKN050=

USA.gov is the U.S. government's official web portal to all federal, state and local government web resources and services.